Time,TemperatureF,DewpointF,PressureIn,WindDirection,WindDirectionDegrees,WindSpeedMPH,WindSpeedGustMPH,Humidity,HourlyPrecipIn,Conditions,Clouds,dailyrainin,SoftwareType,DateUTC
2014-01-06 00:00:00,42.0,40.7,29.36,SE,135,5.0,8.0,95,0.10,,---,0.00,VWS V14.01,2014-01-06 05:00:00,
2014-01-06 00:01:00,41.0,39.7,29.36,SSE,158,7.0,9.0,95,0.10,,---,0.00,VWS V14.01,2014-01-06 05:01:00,
2014-01-06 00:02:00,41.0,39.7,29.35,ESE,112,6.0,11.0,95,0.10,,---,0.00,VWS V14.01,2014-01-06 05:02:00,
2014-01-06 00:03:00,41.0,39.7,29.36,ESE,112,3.0,11.0,95,0.10,,---,0.00,VWS V14.01,2014-01-06 05:03:00,
2014-01-06 00:08:00,41.0,39.7,29.35,SSE,158,6.0,11.0,95,0.10,,---,0.00,VWS V14.01,2014-01-06 05:08:00,
2014-01-06 00:13:00,41.0,39.7,29.33,SE,135,6.0,11.0,95,0.11,,---,0.01,VWS V14.01,2014-01-06 05:13:00,
2014-01-06 00:18:00,41.0,39.7,29.32,South,180,8.0,13.0,95,0.11,,---,0.01,VWS V14.01,2014-01-06 05:18:00,
2014-01-06 00:23:00,41.0,39.7,29.32,SE,135,5.0,13.0,95,0.06,,---,0.01,VWS V14.01,2014-01-06 05:23:00,
2014-01-06 00:28:00,41.0,39.7,29.31,SE,135,9.0,13.0,95,0.06,,---,0.01,VWS V14.01,2014-01-06 05:28:00,
2014-01-06 00:33:00,41.0,39.7,29.31,SSE,158,7.0,13.0,95,0.07,,---,0.02,VWS V14.01,2014-01-06 05:33:00,
2014-01-06 00:39:00,41.0,39.7,29.30,ESE,112,6.0,13.0,95,0.07,,---,0.02,VWS V14.01,2014-01-06 05:39:00,
2014-01-06 00:44:00,41.0,39.7,29.30,SSE,158,4.0,11.0,95,0.04,,---,0.02,VWS V14.01,2014-01-06 05:44:00,
2014-01-06 00:49:00,42.0,40.7,29.30,SSE,158,6.0,13.0,95,0.04,,---,0.02,VWS V14.01,2014-01-06 05:49:00,
2014-01-06 00:54:00,42.0,40.7,29.29,SSE,158,5.0,13.0,95,0.04,,---,0.02,VWS V14.01,2014-01-06 05:54:00,
2014-01-06 00:59:00,42.0,40.7,29.29,SE,135,13.0,18.0,95,0.04,,---,0.02,VWS V14.01,2014-01-06 05:59:00,
2014-01-06 01:04:00,42.0,40.7,29.28,SE,135,6.0,14.0,95,0.02,,---,0.02,VWS V14.01,2014-01-06 06:04:00,
2014-01-06 01:09:00,42.0,40.7,29.28,SSE,158,6.0,16.0,95,0.03,,---,0.03,VWS V14.01,2014-01-06 06:09:00,
2014-01-06 01:14:00,42.0,40.7,29.29,South,180,3.0,16.0,95,0.03,,---,0.03,VWS V14.01,2014-01-06 06:14:00,
2014-01-06 01:20:00,43.0,41.7,29.28,South,180,6.0,16.0,95,0.04,,---,0.04,VWS V14.01,2014-01-06 06:20:00,
2014-01-06 01:25:00,42.0,40.7,29.27,SE,135,6.0,14.0,95,0.03,,---,0.04,VWS V14.01,2014-01-06 06:25:00,
2014-01-06 01:30:00,43.0,41.7,29.27,SE,135,12.0,15.0,95,0.03,,---,0.04,VWS V14.01,2014-01-06 06:30:00,
2014-01-06 01:35:00,43.0,41.7,29.27,South,180,8.0,16.0,95,0.04,,---,0.05,VWS V14.01,2014-01-06 06:35:00,
2014-01-06 01:40:00,43.0,41.7,29.26,South,180,4.0,7.0,95,0.03,,---,0.05,VWS V14.01,2014-01-06 06:40:00,
2014-01-06 01:45:00,43.0,41.7,29.25,ESE,112,6.0,16.0,95,0.04,,---,0.06,VWS V14.01,2014-01-06 06:45:00,
2014-01-06 01:50:00,44.0,42.7,29.25,South,180,8.0,16.0,95,0.04,,---,0.06,VWS V14.01,2014-01-06 06:50:00,
2014-01-06 01:56:00,44.0,42.7,29.25,SE,135,8.0,17.0,95,0.05,,---,0.07,VWS V14.01,2014-01-06 06:56:00,
2014-01-06 02:01:00,44.0,42.7,29.23,SE,135,10.0,18.0,95,0.05,,---,0.07,VWS V14.01,2014-01-06 07:01:00,
2014-01-06 02:06:00,44.0,42.7,29.24,SSE,158,9.0,18.0,95,0.05,,---,0.07,VWS V14.01,2014-01-06 07:06:00,
2014-01-06 02:11:00,44.0,42.4,29.25,South,180,5.0,18.0,94,0.05,,---,0.07,VWS V14.01,2014-01-06 07:11:00,
2014-01-06 02:16:00,44.0,42.4,29.25,SSE,158,8.0,19.0,94,0.05,,---,0.07,VWS V14.01,2014-01-06 07:16:00,
2014-01-06 02:21:00,44.0,42.4,29.25,SSE,158,6.0,10.0,94,0.04,,---,0.08,VWS V14.01,2014-01-06 07:21:00,
2014-01-06 02:26:00,45.0,43.4,29.25,South,180,14.0,19.0,94,0.05,,---,0.09,VWS V14.01,2014-01-06 07:26:00,
2014-01-06 02:31:00,45.0,43.4,29.25,SSE,158,12.0,19.0,94,0.06,,---,0.10,VWS V14.01,2014-01-06 07:31:00,
2014-01-06 02:36:00,45.0,43.4,29.25,SSW,202,11.0,19.0,94,0.07,,---,0.11,VWS V14.01,2014-01-06 07:36:00,
2014-01-06 02:41:00,45.0,43.4,29.27,SW,225,17.0,34.0,94,0.08,,---,0.13,VWS V14.01,2014-01-06 07:41:00,
2014-01-06 02:46:00,44.0,40.7,29.28,WSW,248,22.0,34.0,88,0.09,,---,0.14,VWS V14.01,2014-01-06 07:46:00,
2014-01-06 02:51:00,43.0,39.1,29.29,WSW,248,19.0,34.0,86,0.09,,---,0.14,VWS V14.01,2014-01-06 07:51:00,
2014-01-06 02:57:00,43.0,38.8,29.28,WSW,248,24.0,36.0,85,0.10,,---,0.15,VWS V14.01,2014-01-06 07:57:00,
2014-01-06 03:02:00,42.0,37.5,29.28,WSW,248,20.0,30.0,84,0.08,,---,0.15,VWS V14.01,2014-01-06 08:02:00,
2014-01-06 03:07:00,42.0,37.8,29.29,SW,225,11.0,31.0,85,0.08,,---,0.15,VWS V14.01,2014-01-06 08:07:00,
2014-01-06 03:12:00,42.0,38.1,29.29,SW,225,18.0,32.0,86,0.08,,---,0.15,VWS V14.01,2014-01-06 08:12:00,
2014-01-06 03:17:00,41.0,37.4,29.29,WSW,248,17.0,32.0,87,0.09,,---,0.16,VWS V14.01,2014-01-06 08:17:00,
2014-01-06 03:22:00,41.0,37.7,29.30,SW,225,12.0,16.0,88,0.08,,---,0.16,VWS V14.01,2014-01-06 08:22:00,
2014-01-06 03:27:00,41.0,37.7,29.30,SW,225,18.0,24.0,88,0.09,,---,0.17,VWS V14.01,2014-01-06 08:27:00,
2014-01-06 03:32:00,40.0,36.5,29.28,West,270,13.0,30.0,87,0.09,,---,0.17,VWS V14.01,2014-01-06 08:32:00,
2014-01-06 03:37:00,40.0,36.2,29.28,WSW,248,30.0,39.0,86,0.10,,---,0.18,VWS V14.01,2014-01-06 08:37:00,
2014-01-06 03:42:00,40.0,36.2,29.28,WSW,248,10.0,28.0,86,0.06,,---,0.19,VWS V14.01,2014-01-06 08:42:00,
2014-01-06 03:47:00,39.0,35.5,29.28,SW,225,15.0,32.0,87,0.06,,---,0.19,VWS V14.01,2014-01-06 08:47:00,
2014-01-06 03:53:00,39.0,35.8,29.28,WSW,248,26.0,32.0,88,0.07,,---,0.20,VWS V14.01,2014-01-06 08:53:00,
2014-01-06 03:58:00,39.0,35.8,29.29,WSW,248,10.0,32.0,88,0.07,,---,0.20,VWS V14.01,2014-01-06 08:58:00,
2014-01-06 04:03:00,39.0,35.8,29.29,West,270,20.0,34.0,88,0.06,,---,0.21,VWS V14.01,2014-01-06 09:03:00,
2014-01-06 04:08:00,38.0,35.3,29.31,WSW,248,14.0,34.0,90,0.07,,---,0.22,VWS V14.01,2014-01-06 09:08:00,
2014-01-06 04:13:00,35.0,30.7,29.34,WSW,248,20.0,42.0,84,0.07,,---,0.22,VWS V14.01,2014-01-06 09:13:00,
2014-01-06 04:18:00,32.0,28.9,29.35,WSW,248,23.0,42.0,88,0.07,,---,0.22,VWS V14.01,2014-01-06 09:18:00,
2014-01-06 04:23:00,31.0,29.0,29.37,WSW,248,21.0,32.0,92,0.07,,---,0.23,VWS V14.01,2014-01-06 09:23:00,
2014-01-06 04:28:00,31.0,29.5,29.36,West,270,21.0,32.0,94,0.07,,---,0.23,VWS V14.01,2014-01-06 09:28:00,
2014-01-06 04:33:00,30.0,29.0,29.37,West,270,14.0,32.0,96,0.07,,---,0.23,VWS V14.01,2014-01-06 09:33:00,
2014-01-06 04:38:00,30.0,29.2,29.37,West,270,16.0,32.0,97,0.07,,---,0.23,VWS V14.01,2014-01-06 09:38:00,
2014-01-06 04:43:00,30.0,29.2,29.40,WSW,248,12.0,21.0,97,0.05,,---,0.23,VWS V14.01,2014-01-06 09:43:00,
2014-01-06 04:48:00,29.0,28.0,29.40,WSW,248,32.0,36.0,96,0.05,,---,0.23,VWS V14.01,2014-01-06 09:48:00,
2014-01-06 04:54:00,28.0,27.0,29.40,West,270,14.0,36.0,96,0.05,,---,0.23,VWS V14.01,2014-01-06 09:54:00,
2014-01-06 04:59:00,28.0,27.3,29.39,WNW,292,14.0,36.0,97,0.05,,---,0.23,VWS V14.01,2014-01-06 09:59:00,
2014-01-06 05:04:00,28.0,27.5,29.41,West,270,21.0,30.0,98,0.02,,---,0.23,VWS V14.01,2014-01-06 10:04:00,
2014-01-06 05:09:00,27.0,26.3,29.42,WSW,248,21.0,30.0,97,0.02,,---,0.23,VWS V14.01,2014-01-06 10:09:00,
2014-01-06 05:14:00,27.0,26.5,29.43,WNW,292,15.0,30.0,98,0.02,,---,0.23,VWS V14.01,2014-01-06 10:14:00,
2014-01-06 05:19:00,27.0,26.5,29.44,West,270,16.0,30.0,98,0.02,,---,0.23,VWS V14.01,2014-01-06 10:19:00,
2014-01-06 05:24:00,27.0,26.3,29.47,West,270,26.0,32.0,97,0.01,,---,0.23,VWS V14.01,2014-01-06 10:24:00,
2014-01-06 05:29:00,27.0,26.0,29.47,WSW,248,18.0,34.0,96,0.01,,---,0.23,VWS V14.01,2014-01-06 10:29:00,
2014-01-06 05:34:00,27.0,26.3,29.48,West,270,14.0,34.0,97,0.01,,---,0.23,VWS V14.01,2014-01-06 10:34:00,
2014-01-06 05:39:00,27.0,26.0,29.46,WSW,248,16.0,34.0,96,0.01,,---,0.23,VWS V14.01,2014-01-06 10:39:00,
2014-01-06 05:44:00,26.0,24.5,29.47,West,270,21.0,31.0,94,0.00,,---,0.23,VWS V14.01,2014-01-06 10:44:00,
2014-01-06 05:49:00,26.0,24.5,29.48,West,270,16.0,31.0,94,0.00,,---,0.23,VWS V14.01,2014-01-06 10:49:00,
2014-01-06 05:54:00,26.0,24.5,29.50,West,270,18.0,31.0,94,0.00,,---,0.23,VWS V14.01,2014-01-06 10:54:00,
2014-01-06 06:00:00,26.0,24.3,29.49,West,270,24.0,31.0,93,0.00,,---,0.23,VWS V14.01,2014-01-06 11:00:00,
2014-01-06 06:05:00,26.0,24.0,29.49,West,270,16.0,31.0,92,0.00,,---,0.23,VWS V14.01,2014-01-06 11:05:00,
2014-01-06 06:10:00,26.0,24.3,29.50,WNW,292,19.0,31.0,93,0.00,,---,0.23,VWS V14.01,2014-01-06 11:10:00,
2014-01-06 06:15:00,26.0,24.3,29.51,WNW,292,14.0,31.0,93,0.00,,---,0.23,VWS V14.01,2014-01-06 11:15:00,
2014-01-06 06:20:00,26.0,24.5,29.51,WSW,248,12.0,15.0,94,0.00,,---,0.23,VWS V14.01,2014-01-06 11:20:00,
2014-01-06 06:25:00,25.0,23.5,29.52,West,270,21.0,30.0,94,0.00,,---,0.23,VWS V14.01,2014-01-06 11:25:00,
2014-01-06 06:30:00,25.0,23.3,29.53,WNW,292,16.0,30.0,93,0.00,,---,0.23,VWS V14.01,2014-01-06 11:30:00,
2014-01-06 06:35:00,24.0,21.2,29.53,West,270,19.0,39.0,89,0.00,,---,0.23,VWS V14.01,2014-01-06 11:35:00,
2014-01-06 06:40:00,24.0,21.5,29.54,WNW,292,12.0,17.0,90,0.00,,---,0.23,VWS V14.01,2014-01-06 11:40:00,
2014-01-06 06:45:00,24.0,21.5,29.54,NW,315,18.0,24.0,90,0.00,,---,0.23,VWS V14.01,2014-01-06 11:45:00,
2014-01-06 06:50:00,24.0,21.8,29.54,WNW,292,11.0,24.0,91,0.00,,---,0.23,VWS V14.01,2014-01-06 11:50:00,
2014-01-06 06:55:00,24.0,22.3,29.55,WSW,248,11.0,24.0,93,0.00,,---,0.23,VWS V14.01,2014-01-06 11:55:00,
2014-01-06 07:01:00,24.0,22.3,29.56,WNW,292,13.0,19.0,93,0.00,,---,0.23,VWS V14.01,2014-01-06 12:01:00,
2014-01-06 07:06:00,24.0,21.5,29.56,WSW,248,16.0,26.0,90,0.00,,---,0.23,VWS V14.01,2014-01-06 12:06:00,
2014-01-06 07:11:00,23.0,20.5,29.57,WSW,248,19.0,27.0,90,0.00,,---,0.23,VWS V14.01,2014-01-06 12:11:00,
2014-01-06 07:16:00,23.0,20.8,29.57,WSW,248,21.0,27.0,91,0.00,,---,0.23,VWS V14.01,2014-01-06 12:16:00,
2014-01-06 07:21:00,22.0,19.8,29.58,WNW,292,13.0,24.0,91,0.00,,---,0.23,VWS V14.01,2014-01-06 12:21:00,
2014-01-06 07:26:00,22.0,19.3,29.58,West,270,20.0,26.0,89,0.00,,---,0.23,VWS V14.01,2014-01-06 12:26:00,
2014-01-06 07:31:00,22.0,19.5,29.58,West,270,10.0,26.0,90,0.00,,---,0.23,VWS V14.01,2014-01-06 12:31:00,
2014-01-06 07:36:00,22.0,18.7,29.58,West,270,12.0,35.0,87,0.00,,---,0.23,VWS V14.01,2014-01-06 12:36:00,
2014-01-06 07:41:00,21.0,17.5,29.59,West,270,19.0,32.0,86,0.00,,---,0.23,VWS V14.01,2014-01-06 12:41:00,
2014-01-06 07:46:00,21.0,18.0,29.60,WNW,292,24.0,32.0,88,0.00,,---,0.23,VWS V14.01,2014-01-06 12:46:00,
2014-01-06 07:51:00,21.0,17.8,29.60,WNW,292,17.0,32.0,87,0.00,,---,0.23,VWS V14.01,2014-01-06 12:51:00,
2014-01-06 07:56:00,21.0,17.5,29.61,West,270,16.0,32.0,86,0.00,,---,0.23,VWS V14.01,2014-01-06 12:56:00,
2014-01-06 08:02:00,21.0,17.8,29.61,WSW,248,13.0,29.0,87,0.00,,---,0.23,VWS V14.01,2014-01-06 13:02:00,
2014-01-06 08:07:00,21.0,17.5,29.61,West,270,11.0,29.0,86,0.00,,---,0.23,VWS V14.01,2014-01-06 13:07:00,
2014-01-06 08:12:00,20.0,16.8,29.62,West,270,11.0,29.0,87,0.00,,---,0.23,VWS V14.01,2014-01-06 13:12:00,
2014-01-06 08:17:00,20.0,15.9,29.62,WSW,248,16.0,29.0,84,0.00,,---,0.23,VWS V14.01,2014-01-06 13:17:00,
2014-01-06 08:22:00,20.0,15.7,29.63,West,270,19.0,29.0,83,0.00,,---,0.23,VWS V14.01,2014-01-06 13:22:00,
2014-01-06 08:27:00,19.0,14.7,29.63,West,270,18.0,29.0,83,0.00,,---,0.23,VWS V14.01,2014-01-06 13:27:00,
2014-01-06 08:32:00,20.0,15.9,29.64,WNW,292,18.0,29.0,84,0.00,,---,0.23,VWS V14.01,2014-01-06 13:32:00,
2014-01-06 08:37:00,19.0,14.7,29.64,WNW,292,13.0,29.0,83,0.00,,---,0.23,VWS V14.01,2014-01-06 13:37:00,
2014-01-06 08:42:00,19.0,14.4,29.64,WSW,248,8.0,24.0,82,0.00,,---,0.23,VWS V14.01,2014-01-06 13:42:00,
2014-01-06 08:48:00,19.0,14.4,29.65,West,270,12.0,24.0,82,0.00,,---,0.23,VWS V14.01,2014-01-06 13:48:00,
2014-01-06 08:53:00,19.0,14.7,29.65,WNW,292,22.0,24.0,83,0.00,,---,0.23,VWS V14.01,2014-01-06 13:53:00,
2014-01-06 08:58:00,19.0,14.7,29.65,West,270,10.0,26.0,83,0.00,,---,0.23,VWS V14.01,2014-01-06 13:58:00,
2014-01-06 09:03:00,19.0,15.0,29.66,West,270,12.0,23.0,84,0.00,,---,0.23,VWS V14.01,2014-01-06 14:03:00,
2014-01-06 09:04:00,19.0,15.2,29.66,WSW,248,19.0,23.0,85,0.00,,---,0.23,VWS V14.01,2014-01-06 14:04:00,
2014-01-06 09:09:00,19.0,15.2,29.66,West,270,11.0,24.0,85,0.00,,---,0.23,VWS V14.01,2014-01-06 14:09:00,
2014-01-06 09:14:00,19.0,15.2,29.66,West,270,13.0,24.0,85,0.00,,---,0.23,VWS V14.01,2014-01-06 14:14:00,
2014-01-06 09:20:00,19.0,15.2,29.67,West,270,13.0,24.0,85,0.00,,---,0.23,VWS V14.01,2014-01-06 14:20:00,
2014-01-06 09:25:00,19.0,15.0,29.66,SW,225,14.0,20.0,84,0.00,,---,0.23,VWS V14.01,2014-01-06 14:25:00,
2014-01-06 09:30:00,19.0,15.2,29.67,WSW,248,13.0,21.0,85,0.00,,---,0.23,VWS V14.01,2014-01-06 14:30:00,
2014-01-06 09:35:00,19.0,15.2,29.67,WSW,248,8.0,23.0,85,0.00,,---,0.23,VWS V14.01,2014-01-06 14:35:00,
2014-01-06 09:40:00,19.0,15.2,29.67,WSW,248,9.0,16.0,85,0.00,,---,0.23,VWS V14.01,2014-01-06 14:40:00,
2014-01-06 09:45:00,19.0,15.0,29.67,WNW,292,18.0,22.0,84,0.00,,---,0.23,VWS V14.01,2014-01-06 14:45:00,
2014-01-06 09:50:00,19.0,15.2,29.67,West,270,11.0,23.0,85,0.00,,---,0.23,VWS V14.01,2014-01-06 14:50:00,
2014-01-06 09:55:00,19.0,15.5,29.68,WSW,248,12.0,23.0,86,0.00,,---,0.23,VWS V14.01,2014-01-06 14:55:00,
2014-01-06 10:00:00,19.0,15.5,29.68,WNW,292,16.0,16.0,86,0.00,,---,0.23,VWS V14.01,2014-01-06 15:00:00,
2014-01-06 10:06:00,19.0,14.7,29.68,WSW,248,10.0,26.0,83,0.00,,---,0.23,VWS V14.01,2014-01-06 15:06:00,
2014-01-06 10:11:00,19.0,14.7,29.68,WSW,248,16.0,29.0,83,0.00,,---,0.23,VWS V14.01,2014-01-06 15:11:00,
2014-01-06 10:16:00,19.0,14.4,29.68,SW,225,18.0,29.0,82,0.00,,---,0.23,VWS V14.01,2014-01-06 15:16:00,
2014-01-06 10:21:00,19.0,14.4,29.68,WNW,292,13.0,16.0,82,0.00,,---,0.23,VWS V14.01,2014-01-06 15:21:00,
2014-01-06 10:26:00,19.0,14.7,29.68,WSW,248,15.0,18.0,83,0.00,,---,0.23,VWS V14.01,2014-01-06 15:26:00,
2014-01-06 10:31:00,19.0,14.4,29.68,WSW,248,16.0,23.0,82,0.00,,---,0.23,VWS V14.01,2014-01-06 15:31:00,
2014-01-06 10:36:00,19.0,13.9,29.68,West,270,19.0,26.0,80,0.00,,---,0.23,VWS V14.01,2014-01-06 15:36:00,
2014-01-06 10:41:00,19.0,14.4,29.68,WSW,248,8.0,12.0,82,0.00,,---,0.23,VWS V14.01,2014-01-06 15:41:00,
2014-01-06 10:46:00,19.0,14.4,29.68,West,270,13.0,22.0,82,0.00,,---,0.23,VWS V14.01,2014-01-06 15:46:00,
2014-01-06 10:52:00,19.0,14.4,29.68,WSW,248,21.0,24.0,82,0.00,,---,0.23,VWS V14.01,2014-01-06 15:52:00,
2014-01-06 10:57:00,19.0,14.7,29.67,WNW,292,13.0,24.0,83,0.00,,---,0.23,VWS V14.01,2014-01-06 15:57:00,
2014-01-06 11:02:00,19.0,14.7,29.67,West,270,12.0,19.0,83,0.00,,---,0.23,VWS V14.01,2014-01-06 16:02:00,
2014-01-06 11:07:00,19.0,14.1,29.67,WSW,248,18.0,26.0,81,0.00,,---,0.23,VWS V14.01,2014-01-06 16:07:00,
2014-01-06 11:12:00,19.0,14.7,29.67,West,270,13.0,26.0,83,0.00,,---,0.23,VWS V14.01,2014-01-06 16:12:00,
2014-01-06 11:17:00,19.0,14.4,29.66,West,270,10.0,26.0,82,0.00,,---,0.23,VWS V14.01,2014-01-06 16:17:00,
2014-01-06 11:22:00,19.0,14.7,29.66,WNW,292,20.0,24.0,83,0.00,,---,0.23,VWS V14.01,2014-01-06 16:22:00,
2014-01-06 11:27:00,18.0,14.0,29.67,West,270,11.0,24.0,84,0.00,,---,0.23,VWS V14.01,2014-01-06 16:27:00,
2014-01-06 11:32:00,18.0,14.3,29.67,WNW,292,10.0,24.0,85,0.00,,---,0.23,VWS V14.01,2014-01-06 16:32:00,
2014-01-06 11:38:00,18.0,14.3,29.67,West,270,17.0,24.0,85,0.00,,---,0.23,VWS V14.01,2014-01-06 16:38:00,
2014-01-06 11:43:00,18.0,14.8,29.66,WNW,292,6.0,15.0,87,0.00,,---,0.23,VWS V14.01,2014-01-06 16:43:00,
2014-01-06 11:48:00,18.0,13.4,29.67,WNW,292,23.0,27.0,82,0.00,,---,0.23,VWS V14.01,2014-01-06 16:48:00,
2014-01-06 11:53:00,18.0,12.3,29.67,West,270,14.0,27.0,78,0.00,,---,0.23,VWS V14.01,2014-01-06 16:53:00,
2014-01-06 11:58:00,18.0,12.9,29.66,WSW,248,10.0,27.0,80,0.00,,---,0.23,VWS V14.01,2014-01-06 16:58:00,
2014-01-06 12:03:00,18.0,12.9,29.66,West,270,11.0,29.0,80,0.00,,---,0.23,VWS V14.01,2014-01-06 17:03:00,
2014-01-06 12:08:00,18.0,12.6,29.66,NW,315,5.0,29.0,79,0.00,,---,0.23,VWS V14.01,2014-01-06 17:08:00,
2014-01-06 12:13:00,18.0,13.2,29.67,West,270,6.0,29.0,81,0.00,,---,0.23,VWS V14.01,2014-01-06 17:13:00,
2014-01-06 12:18:00,17.0,11.9,29.66,West,270,10.0,29.0,80,0.00,,---,0.23,VWS V14.01,2014-01-06 17:18:00,
2014-01-06 12:24:00,16.0,10.4,29.66,WNW,292,18.0,24.0,78,0.00,,---,0.23,VWS V14.01,2014-01-06 17:24:00,
2014-01-06 12:29:00,16.0,10.9,29.67,WNW,292,18.0,27.0,80,0.00,,---,0.23,VWS V14.01,2014-01-06 17:29:00,
2014-01-06 12:34:00,16.0,11.2,29.67,WNW,292,16.0,27.0,81,0.00,,---,0.23,VWS V14.01,2014-01-06 17:34:00,
2014-01-06 12:39:00,16.0,11.5,29.67,WNW,292,8.0,27.0,82,0.00,,---,0.23,VWS V14.01,2014-01-06 17:39:00,
2014-01-06 12:44:00,16.0,11.2,29.67,WSW,248,18.0,23.0,81,0.00,,---,0.23,VWS V14.01,2014-01-06 17:44:00,
2014-01-06 12:49:00,16.0,11.8,29.67,West,270,10.0,23.0,83,0.00,,---,0.23,VWS V14.01,2014-01-06 17:49:00,
2014-01-06 12:54:00,15.0,10.8,29.67,NW,315,9.0,24.0,83,0.00,,---,0.23,VWS V14.01,2014-01-06 17:54:00,
2014-01-06 12:59:00,15.0,11.3,29.67,West,270,7.0,24.0,85,0.00,,---,0.23,VWS V14.01,2014-01-06 17:59:00,
2014-01-06 13:04:00,15.0,10.8,29.68,WSW,248,11.0,19.0,83,0.00,,---,0.23,VWS V14.01,2014-01-06 18:04:00,
2014-01-06 13:10:00,14.0,10.3,29.67,West,270,9.0,19.0,85,0.00,,---,0.23,VWS V14.01,2014-01-06 18:10:00,
2014-01-06 13:15:00,14.0,10.3,29.67,SW,225,11.0,19.0,85,0.00,,---,0.23,VWS V14.01,2014-01-06 18:15:00,
2014-01-06 13:20:00,14.0,10.1,29.67,WSW,248,11.0,19.0,84,0.00,,---,0.23,VWS V14.01,2014-01-06 18:20:00,
2014-01-06 13:25:00,14.0,10.3,29.67,WNW,292,5.0,18.0,85,0.00,,---,0.23,VWS V14.01,2014-01-06 18:25:00,
2014-01-06 13:30:00,14.0,8.1,29.68,West,270,13.0,26.0,77,0.00,,---,0.23,VWS V14.01,2014-01-06 18:30:00,
2014-01-06 13:35:00,13.0,6.9,29.68,West,270,13.0,26.0,76,0.00,,---,0.23,VWS V14.01,2014-01-06 18:35:00,
2014-01-06 13:40:00,13.0,6.6,29.68,WNW,292,8.0,18.0,75,0.00,,---,0.23,VWS V14.01,2014-01-06 18:40:00,
2014-01-06 13:45:00,13.0,6.9,29.68,West,270,19.0,24.0,76,0.00,,---,0.23,VWS V14.01,2014-01-06 18:45:00,
2014-01-06 13:50:00,13.0,7.2,29.68,West,270,6.0,24.0,77,0.00,,---,0.23,VWS V14.01,2014-01-06 18:50:00,
2014-01-06 13:55:00,13.0,7.4,29.68,WSW,248,16.0,24.0,78,0.00,,---,0.23,VWS V14.01,2014-01-06 18:55:00,
2014-01-06 14:01:00,13.0,7.4,29.68,NW,315,6.0,13.0,78,0.00,,---,0.23,VWS V14.01,2014-01-06 19:01:00,
2014-01-06 14:06:00,13.0,8.0,29.68,West,270,16.0,16.0,80,0.00,,---,0.23,VWS V14.01,2014-01-06 19:06:00,
2014-01-06 14:11:00,13.0,7.2,29.68,WNW,292,5.0,21.0,77,0.00,,---,0.23,VWS V14.01,2014-01-06 19:11:00,
2014-01-06 14:16:00,13.0,7.2,29.69,West,270,7.0,21.0,77,0.00,,---,0.23,VWS V14.01,2014-01-06 19:16:00,
2014-01-06 14:21:00,12.0,6.2,29.68,WNW,292,13.0,13.0,77,0.00,,---,0.23,VWS V14.01,2014-01-06 19:21:00,
2014-01-06 14:26:00,12.0,6.8,29.69,WNW,292,10.0,15.0,79,0.00,,---,0.23,VWS V14.01,2014-01-06 19:26:00,
2014-01-06 14:31:00,12.0,6.8,29.69,West,270,6.0,15.0,79,0.00,,---,0.23,VWS V14.01,2014-01-06 19:31:00,
2014-01-06 14:36:00,12.0,7.0,29.69,NW,315,13.0,16.0,80,0.00,,---,0.23,VWS V14.01,2014-01-06 19:36:00,
2014-01-06 14:41:00,11.0,5.8,29.69,West,270,10.0,13.0,79,0.00,,---,0.23,VWS V14.01,2014-01-06 19:41:00,
2014-01-06 14:46:00,11.0,5.2,29.69,West,270,8.0,23.0,77,0.00,,---,0.23,VWS V14.01,2014-01-06 19:46:00,
2014-01-06 14:51:00,11.0,6.1,29.69,West,270,11.0,23.0,80,0.00,,---,0.23,VWS V14.01,2014-01-06 19:51:00,
2014-01-06 14:57:00,11.0,6.1,29.69,WNW,292,4.0,23.0,80,0.00,,---,0.23,VWS V14.01,2014-01-06 19:57:00,
2014-01-06 15:02:00,10.0,5.3,29.69,WNW,292,10.0,17.0,81,0.00,,---,0.23,VWS V14.01,2014-01-06 20:02:00,
2014-01-06 15:07:00,10.0,5.3,29.69,WSW,248,8.0,17.0,81,0.00,,---,0.23,VWS V14.01,2014-01-06 20:07:00,
2014-01-06 15:12:00,10.0,4.2,29.69,WSW,248,13.0,19.0,77,0.00,,---,0.23,VWS V14.01,2014-01-06 20:12:00,
2014-01-06 15:17:00,10.0,4.2,29.69,NW,315,16.0,24.0,77,0.00,,---,0.23,VWS V14.01,2014-01-06 20:17:00,
2014-01-06 15:22:00,9.0,3.0,29.69,WNW,292,16.0,19.0,76,0.00,,---,0.23,VWS V14.01,2014-01-06 20:22:00,
2014-01-06 15:27:00,9.0,3.5,29.70,West,270,11.0,21.0,78,0.00,,---,0.23,VWS V14.01,2014-01-06 20:27:00,
2014-01-06 15:32:00,9.0,4.1,29.70,SW,225,5.0,21.0,80,0.00,,---,0.23,VWS V14.01,2014-01-06 20:32:00,
2014-01-06 15:37:00,9.0,4.6,29.71,WSW,248,13.0,21.0,82,0.00,,---,0.23,VWS V14.01,2014-01-06 20:37:00,
2014-01-06 15:42:00,8.0,3.9,29.72,WSW,248,16.0,20.0,83,0.00,,---,0.23,VWS V14.01,2014-01-06 20:42:00,
2014-01-06 15:47:00,8.0,1.7,29.73,West,270,16.0,29.0,75,0.00,,---,0.23,VWS V14.01,2014-01-06 20:47:00,
2014-01-06 15:52:00,8.0,1.5,29.73,West,270,22.0,29.0,74,0.00,,---,0.23,VWS V14.01,2014-01-06 20:52:00,
2014-01-06 15:58:00,7.0,-0.4,29.73,SW,225,13.0,29.0,71,0.00,,---,0.23,VWS V14.01,2014-01-06 20:58:00,
2014-01-06 16:03:00,7.0,-0.4,29.74,WSW,248,14.0,23.0,71,0.00,,---,0.23,VWS V14.01,2014-01-06 21:03:00,
2014-01-06 16:08:00,6.0,-1.4,29.75,West,270,27.0,29.0,71,0.00,,---,0.23,VWS V14.01,2014-01-06 21:08:00,
2014-01-06 16:13:00,6.0,-0.8,29.75,West,270,18.0,35.0,73,0.00,,---,0.23,VWS V14.01,2014-01-06 21:13:00,
2014-01-06 16:18:00,6.0,0.1,29.76,WSW,248,10.0,35.0,76,0.00,,---,0.23,VWS V14.01,2014-01-06 21:18:00,
2014-01-06 16:23:00,5.0,0.5,29.75,West,270,14.0,29.0,81,0.00,,---,0.23,VWS V14.01,2014-01-06 21:23:00,
2014-01-06 16:28:00,4.0,0.0,29.76,WNW,292,23.0,30.0,83,0.00,,---,0.23,VWS V14.01,2014-01-06 21:28:00,
2014-01-06 16:33:00,4.0,-0.5,29.77,NW,315,13.0,30.0,81,0.00,,---,0.23,VWS V14.01,2014-01-06 21:33:00,
2014-01-06 16:38:00,3.0,-3.1,29.77,West,270,23.0,33.0,75,0.00,,---,0.23,VWS V14.01,2014-01-06 21:38:00,
2014-01-06 16:43:00,3.0,-4.8,29.78,WSW,248,24.0,30.0,69,0.00,,---,0.23,VWS V14.01,2014-01-06 21:43:00,
2014-01-06 16:48:00,2.0,-7.4,29.78,WSW,248,18.0,30.0,64,0.00,,---,0.23,VWS V14.01,2014-01-06 21:48:00,
2014-01-06 16:54:00,2.0,-7.4,29.78,SW,225,25.0,33.0,64,0.00,,---,0.23,VWS V14.01,2014-01-06 21:54:00,
2014-01-06 16:59:00,2.0,-7.0,29.79,West,270,24.0,35.0,65,0.00,,---,0.23,VWS V14.01,2014-01-06 21:59:00,
2014-01-06 17:04:00,1.0,-8.3,29.79,WNW,292,22.0,33.0,64,0.00,,---,0.23,VWS V14.01,2014-01-06 22:04:00,
2014-01-06 17:09:00,1.0,-7.7,29.79,West,270,11.0,33.0,66,0.00,,---,0.23,VWS V14.01,2014-01-06 22:09:00,
2014-01-06 17:14:00,1.0,-6.2,29.79,WSW,248,14.0,33.0,71,0.00,,---,0.23,VWS V14.01,2014-01-06 22:14:00,
2014-01-06 17:19:00,1.0,-4.8,29.80,WSW,248,11.0,33.0,76,0.00,,---,0.23,VWS V14.01,2014-01-06 22:19:00,
2014-01-06 17:24:00,1.0,-4.2,29.80,WSW,248,13.0,21.0,78,0.00,,---,0.23,VWS V14.01,2014-01-06 22:24:00,
2014-01-06 17:29:00,0.0,-5.5,29.81,SW,225,13.0,24.0,77,0.00,,---,0.23,VWS V14.01,2014-01-06 22:29:00,
2014-01-06 17:34:00,0.0,-5.8,29.81,West,270,16.0,26.0,76,0.00,,---,0.23,VWS V14.01,2014-01-06 22:34:00,
2014-01-06 17:39:00,0.0,-6.6,29.81,WNW,292,14.0,29.0,73,0.00,,---,0.23,VWS V14.01,2014-01-06 22:39:00,
2014-01-06 17:44:00,-1.0,-8.7,29.81,West,270,13.0,32.0,69,0.00,,---,0.23,VWS V14.01,2014-01-06 22:44:00,
2014-01-06 17:50:00,-1.0,-8.4,29.82,WSW,248,14.0,32.0,70,0.00,,---,0.23,VWS V14.01,2014-01-06 22:50:00,
2014-01-06 17:55:00,-1.0,-9.0,29.82,West,270,26.0,32.0,68,0.00,,---,0.23,VWS V14.01,2014-01-06 22:55:00,
2014-01-06 18:00:00,-1.0,-9.0,29.82,WNW,292,13.0,32.0,68,0.00,,---,0.23,VWS V14.01,2014-01-06 23:00:00,
2014-01-06 18:05:00,-1.0,-8.7,29.83,WSW,248,13.0,26.0,69,0.00,,---,0.23,VWS V14.01,2014-01-06 23:05:00,
2014-01-06 18:10:00,-2.0,-9.4,29.83,West,270,16.0,28.0,70,0.00,,---,0.23,VWS V14.01,2014-01-06 23:10:00,
2014-01-06 18:15:00,-2.0,-9.1,29.83,SW,225,19.0,29.0,71,0.00,,---,0.23,VWS V14.01,2014-01-06 23:15:00,
2014-01-06 18:20:00,-2.0,-8.5,29.83,SW,225,10.0,16.0,73,0.00,,---,0.23,VWS V14.01,2014-01-06 23:20:00,
2014-01-06 18:25:00,-3.0,-9.5,29.84,WSW,248,13.0,28.0,73,0.00,,---,0.23,VWS V14.01,2014-01-06 23:25:00,
2014-01-06 18:30:00,-3.0,-10.3,29.84,WSW,248,23.0,31.0,70,0.00,,---,0.23,VWS V14.01,2014-01-06 23:30:00,
2014-01-06 18:35:00,-3.0,-10.1,29.84,WSW,248,28.0,31.0,71,0.00,,---,0.23,VWS V14.01,2014-01-06 23:35:00,
2014-01-06 18:40:00,-3.0,-10.3,29.84,WSW,248,19.0,24.0,70,0.00,,---,0.23,VWS V14.01,2014-01-06 23:40:00,
2014-01-06 18:45:00,-3.0,-9.5,29.84,SW,225,17.0,26.0,73,0.00,,---,0.23,VWS V14.01,2014-01-06 23:45:00,
2014-01-06 18:51:00,-3.0,-10.1,29.84,West,270,27.0,27.0,71,0.00,,---,0.23,VWS V14.01,2014-01-06 23:51:00,
2014-01-06 18:56:00,-4.0,-11.6,29.85,WSW,248,18.0,34.0,69,0.00,,---,0.23,VWS V14.01,2014-01-06 23:56:00,
2014-01-06 19:01:00,-4.0,-11.3,29.85,WSW,248,18.0,21.0,70,0.00,,---,0.23,VWS V14.01,2014-01-07 00:01:00,
2014-01-06 19:06:00,-4.0,-11.9,29.85,WSW,248,26.0,35.0,68,0.00,,---,0.23,VWS V14.01,2014-01-07 00:06:00,
2014-01-06 19:11:00,-4.0,-11.6,29.85,West,270,16.0,35.0,69,0.00,,---,0.23,VWS V14.01,2014-01-07 00:11:00,
2014-01-06 19:16:00,-4.0,-11.0,29.88,WSW,248,14.0,35.0,71,0.00,,---,0.23,VWS V14.01,2014-01-07 00:16:00,
2014-01-06 19:21:00,-5.0,-12.0,29.88,WSW,248,11.0,27.0,71,0.00,,---,0.23,VWS V14.01,2014-01-07 00:21:00,
2014-01-06 19:26:00,-5.0,-11.4,29.88,South,180,21.0,29.0,73,0.00,,---,0.23,VWS V14.01,2014-01-07 00:26:00,
2014-01-06 19:31:00,-5.0,-11.4,29.89,SW,225,14.0,29.0,73,0.00,,---,0.23,VWS V14.01,2014-01-07 00:31:00,
2014-01-06 19:36:00,-5.0,-11.7,29.89,West,270,12.0,29.0,72,0.00,,---,0.23,VWS V14.01,2014-01-07 00:36:00,
2014-01-06 19:41:00,-5.0,-12.3,29.89,WSW,248,9.0,29.0,70,0.00,,---,0.23,VWS V14.01,2014-01-07 00:41:00,
2014-01-06 19:47:00,-5.0,-12.6,29.86,WSW,248,13.0,29.0,69,0.00,,---,0.23,VWS V14.01,2014-01-07 00:47:00,
2014-01-06 19:52:00,-5.0,-12.3,29.87,WSW,248,12.0,29.0,70,0.00,,---,0.23,VWS V14.01,2014-01-07 00:52:00,
2014-01-06 19:57:00,-5.0,-12.0,29.87,SW,225,15.0,29.0,71,0.00,,---,0.23,VWS V14.01,2014-01-07 00:57:00,
2014-01-06 20:02:00,-5.0,-11.7,29.87,WSW,248,12.0,28.0,72,0.00,,---,0.23,VWS V14.01,2014-01-07 01:02:00,
2014-01-06 20:07:00,-5.0,-11.7,29.87,SW,225,18.0,31.0,72,0.00,,---,0.23,VWS V14.01,2014-01-07 01:07:00,
2014-01-06 20:12:00,-6.0,-12.7,29.87,WSW,248,21.0,31.0,72,0.00,,---,0.23,VWS V14.01,2014-01-07 01:12:00,
2014-01-06 20:17:00,-6.0,-12.4,29.88,WSW,248,16.0,31.0,73,0.00,,---,0.23,VWS V14.01,2014-01-07 01:17:00,
2014-01-06 20:22:00,-6.0,-11.9,29.88,WSW,248,18.0,27.0,75,0.00,,---,0.23,VWS V14.01,2014-01-07 01:22:00,
2014-01-06 20:27:00,-6.0,-11.9,29.88,West,270,19.0,27.0,75,0.00,,---,0.23,VWS V14.01,2014-01-07 01:27:00,
2014-01-06 20:32:00,-6.0,-11.9,29.88,SW,225,18.0,32.0,75,0.00,,---,0.23,VWS V14.01,2014-01-07 01:32:00,
2014-01-06 20:38:00,-6.0,-12.1,29.88,West,270,16.0,32.0,74,0.00,,---,0.23,VWS V14.01,2014-01-07 01:38:00,
2014-01-06 20:43:00,-6.0,-12.1,29.88,SW,225,11.0,35.0,74,0.00,,---,0.23,VWS V14.01,2014-01-07 01:43:00,
2014-01-06 20:48:00,-6.0,-12.1,29.89,West,270,16.0,35.0,74,0.00,,---,0.23,VWS V14.01,2014-01-07 01:48:00,
2014-01-06 20:53:00,-6.0,-12.1,29.89,SW,225,15.0,35.0,74,0.00,,---,0.23,VWS V14.01,2014-01-07 01:53:00,
2014-01-06 20:58:00,-6.0,-12.1,29.89,WNW,292,11.0,35.0,74,0.00,,---,0.23,VWS V14.01,2014-01-07 01:58:00,
2014-01-06 21:03:00,-7.0,-13.1,29.90,SW,225,6.0,18.0,74,0.00,,---,0.23,VWS V14.01,2014-01-07 02:03:00,
2014-01-06 21:08:00,-7.0,-13.1,29.90,WSW,248,14.0,26.0,74,0.00,,---,0.23,VWS V14.01,2014-01-07 02:08:00,
2014-01-06 21:13:00,-7.0,-13.6,29.90,SW,225,25.0,34.0,72,0.00,,---,0.23,VWS V14.01,2014-01-07 02:13:00,
2014-01-06 21:18:00,-7.0,-13.9,29.90,WSW,248,18.0,34.0,71,0.00,,---,0.23,VWS V14.01,2014-01-07 02:18:00,
2014-01-06 21:23:00,-7.0,-13.4,29.90,WSW,248,20.0,26.0,73,0.00,,---,0.23,VWS V14.01,2014-01-07 02:23:00,
2014-01-06 21:28:00,-7.0,-13.1,29.91,WSW,248,12.0,26.0,74,0.00,,---,0.23,VWS V14.01,2014-01-07 02:28:00,
2014-01-06 21:34:00,-8.0,-13.8,29.91,WSW,248,22.0,26.0,75,0.00,,---,0.23,VWS V14.01,2014-01-07 02:34:00,
2014-01-06 21:39:00,-8.0,-14.1,29.91,West,270,16.0,26.0,74,0.00,,---,0.23,VWS V14.01,2014-01-07 02:39:00,
2014-01-06 21:44:00,-8.0,-14.1,29.92,West,270,11.0,26.0,74,0.00,,---,0.23,VWS V14.01,2014-01-07 02:44:00,
2014-01-06 21:49:00,-8.0,-14.1,29.91,WNW,292,7.0,27.0,74,0.00,,---,0.23,VWS V14.01,2014-01-07 02:49:00,
2014-01-06 21:54:00,-8.0,-14.1,29.91,SW,225,7.0,27.0,74,0.00,,---,0.23,VWS V14.01,2014-01-07 02:54:00,
2014-01-06 21:59:00,-8.0,-13.5,29.91,WSW,248,6.0,27.0,76,0.00,,---,0.23,VWS V14.01,2014-01-07 02:59:00,
2014-01-06 22:04:00,-8.0,-13.3,29.92,SW,225,11.0,19.0,77,0.00,,---,0.23,VWS V14.01,2014-01-07 03:04:00,
2014-01-06 22:09:00,-8.0,-13.3,29.92,WSW,248,11.0,23.0,77,0.00,,---,0.23,VWS V14.01,2014-01-07 03:09:00,
2014-01-06 22:14:00,-9.0,-14.8,29.92,WSW,248,21.0,27.0,75,0.00,,---,0.23,VWS V14.01,2014-01-07 03:14:00,
2014-01-06 22:19:00,-9.0,-15.0,29.92,WSW,248,19.0,28.0,74,0.00,,---,0.23,VWS V14.01,2014-01-07 03:19:00,
2014-01-06 22:24:00,-9.0,-15.3,29.92,WSW,248,21.0,26.0,73,0.00,,---,0.23,VWS V14.01,2014-01-07 03:24:00,
2014-01-06 22:30:00,-9.0,-15.0,29.92,West,270,13.0,26.0,74,0.00,,---,0.23,VWS V14.01,2014-01-07 03:30:00,
2014-01-06 22:35:00,-9.0,-14.8,29.91,SW,225,12.0,27.0,75,0.00,,---,0.23,VWS V14.01,2014-01-07 03:35:00,
2014-01-06 22:40:00,-10.0,-15.5,29.92,SW,225,18.0,31.0,76,0.00,,---,0.23,VWS V14.01,2014-01-07 03:40:00,
2014-01-06 22:45:00,-10.0,-15.5,29.92,SW,225,21.0,30.0,76,0.00,,---,0.23,VWS V14.01,2014-01-07 03:45:00,
2014-01-06 22:50:00,-10.0,-16.0,29.92,WSW,248,20.0,30.0,74,0.00,,---,0.23,VWS V14.01,2014-01-07 03:50:00,
2014-01-06 22:55:00,-10.0,-16.0,29.92,WSW,248,18.0,30.0,74,0.00,,---,0.23,VWS V14.01,2014-01-07 03:55:00,
2014-01-06 23:00:00,-10.0,-15.7,29.93,SW,225,12.0,18.0,75,0.00,,---,0.23,VWS V14.01,2014-01-07 04:00:00,
2014-01-06 23:05:00,-10.0,-16.0,29.92,WSW,248,10.0,29.0,74,0.00,,---,0.23,VWS V14.01,2014-01-07 04:05:00,
2014-01-06 23:10:00,-10.0,-16.0,29.93,West,270,26.0,33.0,74,0.00,,---,0.23,VWS V14.01,2014-01-07 04:10:00,
2014-01-06 23:16:00,-10.0,-16.3,29.93,WSW,248,20.0,33.0,73,0.00,,---,0.23,VWS V14.01,2014-01-07 04:16:00,
2014-01-06 23:21:00,-10.0,-16.5,29.93,West,270,18.0,23.0,72,0.00,,---,0.23,VWS V14.01,2014-01-07 04:21:00,
2014-01-06 23:26:00,-10.0,-16.3,29.94,SW,225,18.0,28.0,73,0.00,,---,0.23,VWS V14.01,2014-01-07 04:26:00,
2014-01-06 23:31:00,-11.0,-17.2,29.94,West,270,22.0,28.0,73,0.00,,---,0.23,VWS V14.01,2014-01-07 04:31:00,
2014-01-06 23:36:00,-11.0,-17.2,29.94,SW,225,11.0,28.0,73,0.00,,---,0.23,VWS V14.01,2014-01-07 04:36:00,
2014-01-06 23:41:00,-11.0,-17.0,29.93,WSW,248,12.0,24.0,74,0.00,,---,0.23,VWS V14.01,2014-01-07 04:41:00,
2014-01-06 23:46:00,-11.0,-17.2,29.94,WSW,248,25.0,31.0,73,0.00,,---,0.23,VWS V14.01,2014-01-07 04:46:00,
2014-01-06 23:51:00,-11.0,-17.5,29.94,SW,225,16.0,31.0,72,0.00,,---,0.23,VWS V14.01,2014-01-07 04:51:00,
2014-01-06 23:56:00,-11.0,-17.2,29.94,WSW,248,11.0,35.0,73,0.00,,---,0.23,VWS V14.01,2014-01-07 04:56:00,